createdAt,value
2018-09-02T00:01:36.511Z,7.57
2018-09-02T00:04:41.039Z,6.43
2018-09-02T00:07:45.359Z,7.00
2018-09-02T00:10:49.818Z,6.67
2018-09-02T00:13:54.160Z,7.37
2018-09-02T00:16:58.634Z,6.47
2018-09-02T00:20:03.161Z,6.83
2018-09-02T00:23:08.060Z,6.93
2018-09-02T00:26:12.416Z,6.87
2018-09-02T00:29:16.873Z,6.87
2018-09-02T00:32:21.250Z,7.63
2018-09-02T00:35:25.761Z,6.90
2018-09-02T00:38:30.563Z,7.60
2018-09-02T00:41:35.942Z,6.53
2018-09-02T00:44:40.307Z,7.00
2018-09-02T00:47:44.779Z,7.13
2018-09-02T00:50:49.136Z,7.03
2018-09-02T00:53:53.597Z,7.47
2018-09-02T00:56:58.193Z,6.80
2018-09-02T01:00:02.580Z,6.83
2018-09-02T01:03:06.917Z,7.20
2018-09-02T01:06:11.337Z,7.87
2018-09-02T01:09:15.731Z,7.67
2018-09-02T01:12:20.363Z,6.77
2018-09-02T01:15:24.699Z,7.87
2018-09-02T01:18:29.140Z,8.03
2018-09-02T01:21:33.473Z,6.27
2018-09-02T01:24:37.818Z,7.40
2018-09-02T01:27:42.749Z,7.17
2018-09-02T01:30:47.103Z,7.23
2018-09-02T01:33:51.534Z,7.33
2018-09-02T01:36:55.894Z,6.73
2018-09-02T01:40:00.257Z,6.93
2018-09-02T01:43:05.396Z,7.20
2018-09-02T01:46:09.750Z,6.63
2018-09-02T01:49:14.213Z,6.90
2018-09-02T01:52:18.573Z,6.57
2018-09-02T01:55:22.986Z,7.13
2018-09-02T01:58:27.502Z,7.40
2018-09-02T02:01:31.905Z,7.50
2018-09-02T02:04:41.305Z,7.30
2018-09-02T02:07:45.649Z,7.07
2018-09-02T02:10:50.009Z,7.63
2018-09-02T02:13:54.345Z,6.30
2018-09-02T02:16:58.691Z,6.10
2018-09-02T02:20:03.005Z,7.47
2018-09-02T02:23:07.436Z,6.83
2018-09-02T02:26:11.745Z,7.10
2018-09-02T02:29:16.089Z,6.60
2018-09-02T02:32:20.441Z,7.33
2018-09-02T02:35:24.777Z,7.13
2018-09-02T02:38:29.126Z,7.27
2018-09-02T02:41:33.481Z,6.83
2018-09-02T02:44:37.849Z,7.97
2018-09-02T02:47:42.210Z,7.30
2018-09-02T02:50:46.596Z,8.30
2018-09-02T02:53:50.964Z,7.67
2018-09-02T02:56:55.293Z,6.37
2018-09-02T02:59:59.661Z,6.37
2018-09-02T03:03:04.005Z,6.73
2018-09-02T03:06:08.352Z,6.37
2018-09-02T03:09:13.254Z,6.40
2018-09-02T03:12:17.653Z,7.23
2018-09-02T03:15:22.096Z,6.37
2018-09-02T03:18:26.466Z,6.07
2018-09-02T03:21:30.835Z,7.27
2018-09-02T03:24:35.536Z,5.77
2018-09-02T03:27:39.909Z,6.80
2018-09-02T03:30:44.343Z,6.40
2018-09-02T03:33:48.694Z,6.77
2018-09-02T03:36:53.145Z,6.27
2018-09-02T03:39:57.625Z,6.60
2018-09-02T03:43:02.026Z,5.93
2018-09-02T03:46:06.422Z,5.53
2018-09-02T03:49:11.136Z,6.00
2018-09-02T03:52:15.629Z,4.87
2018-09-02T03:55:20.206Z,5.27
2018-09-02T03:58:24.609Z,5.17
2018-09-02T04:01:28.978Z,4.87
2018-09-02T04:04:33.385Z,5.23
2018-09-02T04:07:37.717Z,5.20
2018-09-02T04:10:42.083Z,4.67
2018-09-02T04:13:46.513Z,5.57
2018-09-02T04:16:50.913Z,4.60
2018-09-02T04:19:55.273Z,5.63
2018-09-02T04:22:59.662Z,5.20
2018-09-02T04:26:04.106Z,4.57
2018-09-02T04:29:08.453Z,4.33
2018-09-02T04:32:12.818Z,5.47
2018-09-02T04:35:17.177Z,4.60
2018-09-02T04:38:21.565Z,4.93
2018-09-02T04:41:26.595Z,5.50
2018-09-02T04:44:30.893Z,5.60
2018-09-02T04:47:35.292Z,5.37
2018-09-02T04:50:40.389Z,5.07
2018-09-02T04:53:44.809Z,4.60
2018-09-02T04:56:49.176Z,5.13
2018-09-02T04:59:53.634Z,5.17
2018-09-02T05:02:58.049Z,5.00
2018-09-02T05:06:02.455Z,4.60
2018-09-02T05:09:07.387Z,5.10
2018-09-02T05:12:11.744Z,5.07
2018-09-02T05:15:16.378Z,4.57
2018-09-02T05:18:20.780Z,5.27
2018-09-02T05:21:25.118Z,6.10
2018-09-02T05:24:29.485Z,5.10
2018-09-02T05:27:33.907Z,4.87
2018-09-02T05:30:38.281Z,5.77
2018-09-02T05:33:42.758Z,4.50
2018-09-02T05:36:47.419Z,4.47
2018-09-02T05:39:51.942Z,4.90
2018-09-02T05:42:56.311Z,4.50
2018-09-02T05:46:00.681Z,4.53
2018-09-02T05:49:06.201Z,4.40
2018-09-02T05:52:10.615Z,4.60
2018-09-02T05:55:15.001Z,5.30
2018-09-02T05:58:19.460Z,5.27
2018-09-02T06:01:23.789Z,4.57
2018-09-02T06:04:28.167Z,4.53
2018-09-02T06:07:32.609Z,4.77
2018-09-02T06:10:37.051Z,3.77
2018-09-02T06:13:41.382Z,3.57
2018-09-02T06:16:46.122Z,4.57
2018-09-02T06:19:50.457Z,3.80
2018-09-02T06:22:55.625Z,4.20
2018-09-02T06:26:00.119Z,5.00
2018-09-02T06:29:04.629Z,3.80
2018-09-02T06:32:09.030Z,5.13
2018-09-02T06:35:13.461Z,4.73
2018-09-02T06:38:18.040Z,5.90
2018-09-02T06:41:22.441Z,4.67
2018-09-02T06:44:26.879Z,5.10
2018-09-02T06:47:31.840Z,4.37
2018-09-02T06:50:36.191Z,4.30
2018-09-02T06:53:40.523Z,4.40
2018-09-02T06:56:45.073Z,4.27
2018-09-02T06:59:49.430Z,4.70
2018-09-02T07:02:53.817Z,4.20
2018-09-02T07:05:58.635Z,4.70
2018-09-02T07:09:03.085Z,4.58
2018-09-02T07:12:07.446Z,4.23
2018-09-02T07:15:12.120Z,4.30
2018-09-02T07:18:16.788Z,4.40
2018-09-02T07:21:21.132Z,4.57
2018-09-02T07:24:25.495Z,4.47
2018-09-02T07:27:29.909Z,4.53
2018-09-02T07:30:34.404Z,3.40
2018-09-02T07:33:39.459Z,2.87
2018-09-02T07:36:43.831Z,2.77
2018-09-02T07:39:48.456Z,2.47
2018-09-02T07:42:53.023Z,2.23
2018-09-02T07:45:57.597Z,2.53
2018-09-02T07:49:01.953Z,2.77
2018-09-02T07:52:06.307Z,2.00
2018-09-02T07:55:11.313Z,1.77
2018-09-02T07:58:15.723Z,2.93
2018-09-02T08:01:20.072Z,1.93
2018-09-02T08:04:24.433Z,2.10
2018-09-02T08:07:28.933Z,1.87
2018-09-02T08:10:33.306Z,2.20
2018-09-02T08:13:37.769Z,2.00
2018-09-02T08:16:42.165Z,1.90
2018-09-02T08:19:46.917Z,1.30
2018-09-02T08:22:51.298Z,1.50
2018-09-02T08:25:55.669Z,1.50
2018-09-02T08:29:00.045Z,1.22
2018-09-02T08:32:04.449Z,1.50
2018-09-02T08:35:08.839Z,1.60
2018-09-02T08:38:13.233Z,1.50
2018-09-02T08:41:17.681Z,1.93
2018-09-02T08:44:22.315Z,1.80
2018-09-02T08:48:06.098Z,1.90
2018-09-02T08:51:55.223Z,1.70
2018-09-02T09:34:00.458Z,1.47
2018-09-02T09:37:08.434Z,1.40
2018-09-02T09:40:13.074Z,1.30
2018-09-02T09:43:19.641Z,1.20
2018-09-02T09:46:24.522Z,1.53
2018-09-02T09:49:31.450Z,1.60
2018-09-02T09:52:35.950Z,1.80
2018-09-02T09:55:40.561Z,1.55
2018-09-02T09:58:44.939Z,1.10
2018-09-02T10:05:29.808Z,1.33
2018-09-02T10:08:49.399Z,1.17
2018-09-02T10:11:54.519Z,1.43
2018-09-02T10:15:00.216Z,1.17
2018-09-02T10:18:25.387Z,1.20
2018-09-02T10:21:35.831Z,1.00
2018-09-02T10:24:42.336Z,1.00
2018-09-02T10:27:50.593Z,1.43
2018-09-02T10:30:55.169Z,1.30
2018-09-02T10:33:59.806Z,1.60
2018-09-02T10:37:04.517Z,2.03
2018-09-02T10:40:08.925Z,1.57
2018-09-02T10:43:13.553Z,1.67
2018-09-02T10:46:18.183Z,1.93
2018-09-02T10:49:24.382Z,2.70
2018-09-02T10:52:29.860Z,1.83
2018-09-02T10:55:35.822Z,1.53
2018-09-02T10:58:42.067Z,1.70
2018-09-02T11:01:47.238Z,1.37
2018-09-02T11:04:53.427Z,0.90
2018-09-02T11:07:59.438Z,1.10
2018-09-02T11:11:05.024Z,1.00
2018-09-02T11:14:10.872Z,1.00
2018-09-02T11:17:18.243Z,0.87
2018-09-02T11:20:24.774Z,1.07
2018-09-02T11:23:30.068Z,1.10
2018-09-02T11:26:35.588Z,1.03
2018-09-02T11:33:50.494Z,1.00
2018-09-02T11:36:56.232Z,1.07
2018-09-02T11:40:01.504Z,0.90
2018-09-02T11:43:06.573Z,1.10
2018-09-02T11:46:12.011Z,0.70
2018-09-02T11:49:18.275Z,0.70
2018-09-02T11:52:24.332Z,0.80
2018-09-02T11:55:31.029Z,1.00
2018-09-02T11:58:36.540Z,0.80
2018-09-02T12:01:41.640Z,0.70
2018-09-02T12:04:46.526Z,0.50
2018-09-02T12:07:52.267Z,0.70
2018-09-02T12:10:56.871Z,0.90
2018-09-02T12:14:01.862Z,0.90
2018-09-02T12:17:06.590Z,1.07
2018-09-02T12:20:11.078Z,0.80
2018-09-02T12:23:15.625Z,0.43
2018-09-02T12:26:21.352Z,0.60
2018-09-02T12:29:26.045Z,0.70
2018-09-02T12:32:30.782Z,0.60
2018-09-02T12:35:35.634Z,0.78
2018-09-02T12:38:40.198Z,0.70
2018-09-02T12:41:44.876Z,0.80
2018-09-02T12:44:49.662Z,1.00
2018-09-02T12:47:55.049Z,0.80
2018-09-02T12:50:59.408Z,0.70
2018-09-02T12:54:03.933Z,0.50
2018-09-02T12:57:08.568Z,0.60
2018-09-02T13:00:13.122Z,0.70
2018-09-02T13:03:18.945Z,0.60
2018-09-02T13:06:24.124Z,0.50
2018-09-02T13:09:29.277Z,0.80
2018-09-02T13:12:37.761Z,0.87
2018-09-02T13:15:42.485Z,0.83
2018-09-02T13:18:48.034Z,0.90
2018-09-02T13:21:53.120Z,0.80
2018-09-02T13:24:58.091Z,0.77
2018-09-02T13:28:02.662Z,1.10
2018-09-02T13:31:07.280Z,0.93
2018-09-02T13:34:13.396Z,1.07
2018-09-02T13:37:18.147Z,0.93
2018-09-02T13:40:22.887Z,0.90
2018-09-02T13:43:27.713Z,0.80
2018-09-02T13:46:32.241Z,0.90
2018-09-02T13:49:36.878Z,1.00
2018-09-02T13:52:41.578Z,0.80
2018-09-02T13:55:46.493Z,1.03
2018-09-02T13:58:53.181Z,0.70
2018-09-02T14:01:59.322Z,0.57
2018-09-02T14:05:03.965Z,1.00
2018-09-02T14:08:08.828Z,0.60
2018-09-02T14:11:13.475Z,0.60
2018-09-02T14:14:17.983Z,0.70
2018-09-02T14:17:23.519Z,0.70
2018-09-02T14:20:28.207Z,1.10
2018-09-02T14:23:33.393Z,0.85
2018-09-02T14:26:38.689Z,1.43
2018-09-02T14:29:43.204Z,1.50
2018-09-02T14:32:48.507Z,1.70
2018-09-02T14:35:56.604Z,1.30
2018-09-02T14:39:01.545Z,1.80
2018-09-02T14:42:06.420Z,1.93
2018-09-02T14:45:12.277Z,1.60
2018-09-02T14:48:17.450Z,1.50
2018-09-02T14:51:23.939Z,1.70
2018-09-02T14:54:30.828Z,1.67
2018-09-02T14:57:36.756Z,1.40
2018-09-02T15:00:52.759Z,1.40
2018-09-02T15:03:58.956Z,1.62
2018-09-02T15:07:03.821Z,1.60
2018-09-02T15:10:08.394Z,1.77
2018-09-02T15:13:13.344Z,1.83
2018-09-02T15:16:18.157Z,1.70
2018-09-02T15:19:23.570Z,1.90
2018-09-02T15:22:28.941Z,1.33
2018-09-02T15:25:33.736Z,1.37
2018-09-02T15:28:43.863Z,1.30
2018-09-02T15:31:48.783Z,1.47
2018-09-02T15:34:53.464Z,1.30
2018-09-02T15:37:58.250Z,1.63
2018-09-02T15:41:06.256Z,1.37
2018-09-02T15:44:11.557Z,1.30
2018-09-02T15:47:16.048Z,1.97
2018-09-02T15:50:21.290Z,1.40
2018-09-02T15:53:26.129Z,1.70
2018-09-02T15:56:31.655Z,2.03
2018-09-02T15:59:36.444Z,1.90
2018-09-02T16:02:40.983Z,2.03
2018-09-02T16:05:46.121Z,1.97
2018-09-02T16:08:51.153Z,2.07
2018-09-02T16:11:56.032Z,1.87
2018-09-02T16:15:00.797Z,2.10
2018-09-02T16:18:06.015Z,2.30
2018-09-02T16:21:10.507Z,3.00
2018-09-02T16:24:15.216Z,2.87
2018-09-02T16:27:20.082Z,3.30
2018-09-02T16:30:24.997Z,3.03
2018-09-02T16:33:29.854Z,2.93
2018-09-02T16:36:35.023Z,3.33
2018-09-02T16:39:39.910Z,3.30
2018-09-02T16:42:44.458Z,3.70
2018-09-02T16:45:49.231Z,2.80
2018-09-02T16:48:54.399Z,2.93
2018-09-02T16:51:59.926Z,3.07
2018-09-02T16:55:04.718Z,2.80
2018-09-02T16:58:09.502Z,3.40
2018-09-02T17:01:15.094Z,3.37
2018-09-02T17:04:20.986Z,2.23
2018-09-02T17:07:26.737Z,2.60
2018-09-02T17:10:31.242Z,3.65
2018-09-02T17:13:36.191Z,3.07
2018-09-02T17:16:40.669Z,2.93
2018-09-02T17:19:48.239Z,3.10
2018-09-02T17:22:55.896Z,3.30
2018-09-02T17:26:01.230Z,3.87
2018-09-02T17:29:05.948Z,3.90
2018-09-02T17:32:13.041Z,3.93
2018-09-02T17:35:17.955Z,4.30
2018-09-02T17:38:22.690Z,4.30
2018-09-02T17:41:28.341Z,4.13
2018-09-02T17:44:34.158Z,4.43
2018-09-02T17:47:39.045Z,4.40
2018-09-02T17:50:43.963Z,4.20
2018-09-02T17:53:48.888Z,4.97
2018-09-02T17:56:53.539Z,4.77
2018-09-02T17:59:58.304Z,6.30
2018-09-02T18:03:02.911Z,5.57
2018-09-02T18:06:08.797Z,6.47
2018-09-02T18:09:13.240Z,5.00
2018-09-02T18:12:17.977Z,5.33
2018-09-02T18:15:23.652Z,5.57
2018-09-02T18:18:28.181Z,6.10
2018-09-02T18:21:32.793Z,5.97
2018-09-02T18:24:37.374Z,6.00
2018-09-02T18:27:44.638Z,6.90
2018-09-02T18:30:49.150Z,6.10
2018-09-02T18:33:53.623Z,7.00
2018-09-02T18:36:58.310Z,6.47
2018-09-02T18:40:02.847Z,7.13
2018-09-02T18:43:07.744Z,7.77
2018-09-02T18:46:13.154Z,7.60
2018-09-02T18:49:17.684Z,7.73
2018-09-02T18:52:22.101Z,7.43
2018-09-02T18:55:27.088Z,8.20
2018-09-02T18:58:33.187Z,7.46
2018-09-02T19:01:38.127Z,7.10
2018-09-02T19:04:42.916Z,8.43
2018-09-02T19:07:47.669Z,8.90
2018-09-02T19:10:52.626Z,7.25
2018-09-02T19:13:57.164Z,7.97
2018-09-02T19:17:02.150Z,7.07
2018-09-02T19:20:07.691Z,6.90
2018-09-02T19:23:12.625Z,7.57
2018-09-02T19:26:18.173Z,7.93
2018-09-02T19:29:23.093Z,9.93
2018-09-02T19:32:27.943Z,10.00
2018-09-02T19:35:33.409Z,10.57
2018-09-02T19:38:38.261Z,10.90
2018-09-02T19:41:43.070Z,9.97
2018-09-02T19:44:47.792Z,10.43
2018-09-02T19:47:52.827Z,8.97
2018-09-02T19:50:58.298Z,9.18
2018-09-02T19:54:03.238Z,8.20
2018-09-02T19:57:08.131Z,7.00
2018-09-02T20:00:13.889Z,7.37
2018-09-02T20:03:18.646Z,7.37
2018-09-02T20:06:24.411Z,7.43
2018-09-02T20:09:29.456Z,7.63
2018-09-02T20:12:34.495Z,6.83
2018-09-02T20:15:39.140Z,6.30
2018-09-02T20:18:43.897Z,5.63
2018-09-02T20:21:48.343Z,5.90
2018-09-02T20:24:52.933Z,6.63
2018-09-02T20:27:58.013Z,6.80
2018-09-02T20:31:02.612Z,7.23
2018-09-02T20:34:06.986Z,7.13
2018-09-02T20:37:11.765Z,6.53
2018-09-02T20:40:16.397Z,6.40
2018-09-02T20:43:21.288Z,6.93
2018-09-02T20:46:26.252Z,7.20
2018-09-02T20:49:31.286Z,6.37
2018-09-02T20:52:35.890Z,8.83
2018-09-02T20:55:40.555Z,7.17
2018-09-02T20:58:45.238Z,7.03
2018-09-02T21:01:50.667Z,7.27
2018-09-02T21:04:56.320Z,7.27
2018-09-02T21:08:00.679Z,8.30
2018-09-02T21:11:05.197Z,8.67
2018-09-02T21:14:09.814Z,8.50
2018-09-02T21:17:14.327Z,10.50
2018-09-02T21:20:19.224Z,9.20
2018-09-02T21:23:23.946Z,8.17
2018-09-02T21:26:28.455Z,7.77
2018-09-02T21:29:32.921Z,12.87
2018-09-02T21:32:37.333Z,18.23
2018-09-02T21:35:41.829Z,14.53
2018-09-02T21:38:46.657Z,13.05
2018-09-02T21:41:51.234Z,12.30
2018-09-02T21:44:55.859Z,13.10
2018-09-02T21:48:00.397Z,11.60
2018-09-02T21:51:04.812Z,9.73
2018-09-02T21:54:09.499Z,8.40
2018-09-02T21:57:14.146Z,8.40
2018-09-02T22:00:18.928Z,7.47
2018-09-02T22:03:23.473Z,7.73
2018-09-02T22:06:27.965Z,7.97
2018-09-02T22:09:47.188Z,9.40
2018-09-02T22:12:51.594Z,8.37
2018-09-02T22:15:56.430Z,8.90
2018-09-02T22:19:00.901Z,10.30
2018-09-02T22:22:05.597Z,9.03
2018-09-02T22:25:10.404Z,8.60
2018-09-02T22:28:14.766Z,8.07
2018-09-02T22:31:19.261Z,8.50
2018-09-02T22:34:23.873Z,7.97
2018-09-02T22:37:28.937Z,9.13
2018-09-02T22:40:33.284Z,9.30
2018-09-02T22:43:37.862Z,8.07
2018-09-02T22:46:42.324Z,8.80
2018-09-02T22:49:47.832Z,8.93
2018-09-02T22:52:52.607Z,8.57
2018-09-02T22:55:58.358Z,9.47
2018-09-02T22:59:02.707Z,9.80
2018-09-02T23:02:07.053Z,9.40
2018-09-02T23:05:11.477Z,9.87
2018-09-02T23:08:15.869Z,8.23
2018-09-02T23:11:20.491Z,8.63
2018-09-02T23:14:24.848Z,10.23
2018-09-02T23:17:30.210Z,9.87
2018-09-02T23:20:34.741Z,9.43
2018-09-02T23:23:39.234Z,10.88
2018-09-02T23:26:43.901Z,11.23
2018-09-02T23:29:48.293Z,12.50
2018-09-02T23:32:52.780Z,12.67
2018-09-02T23:35:57.127Z,12.67
2018-09-02T23:39:01.539Z,11.03
2018-09-02T23:42:06.165Z,11.33
2018-09-02T23:45:10.496Z,11.83
2018-09-02T23:48:15.128Z,11.83
2018-09-02T23:51:20.960Z,10.50
2018-09-02T23:54:25.407Z,11.63
2018-09-02T23:57:29.747Z,11.77
